Time;durP1;ratioP1;P1;durP2;ratioP2;P2;SDS_P1;SDS_P2;PMS_P1;PMS_P2;Temp;Humidity;BMP_temperature;BMP_pressure;BME280_temperature;BME280_humidity;BME280_pressure;Samples;Min_cycle;Max_cycle;Signal;HPM_P1;HPM_P2
2023/01/15 00:00:13;;;;;;;0.37;0.37;;;11.90;56.20;;;;;;20510;6837;335031;-76
2023/01/15 00:02:39;;;;;;;1.33;0.30;;;12.10;55.80;;;;;;20723;6837;117955;-76
2023/01/15 00:05:05;;;;;;;0.30;0.30;;;12.10;55.70;;;;;;20745;6837;119013;-79
2023/01/15 00:07:30;;;;;;;0.37;0.37;;;11.90;55.90;;;;;;20517;6837;305614;-74
2023/01/15 00:09:56;;;;;;;0.37;0.37;;;12.10;55.10;;;;;;20740;6837;117372;-74
2023/01/15 00:12:21;;;;;;;0.53;0.40;;;12.20;55.20;;;;;;20717;6837;123040;-80
2023/01/15 00:14:47;;;;;;;0.20;0.20;;;12.10;55.50;;;;;;20737;6837;117212;-75
2023/01/15 00:17:12;;;;;;;1.00;0.40;;;11.90;55.80;;;;;;20524;6837;337409;-74
2023/01/15 00:19:39;;;;;;;0.30;0.30;;;12.50;54.70;;;;;;20529;6837;292991;-75
2023/01/15 00:22:04;;;;;;;0.37;0.37;;;12.40;54.50;;;;;;20728;6837;117410;-76
2023/01/15 00:30:02;;;;;;;0.30;0.30;;;12.50;54.20;;;;;;20528;6837;288315;-75
2023/01/15 00:32:29;;;;;;;0.50;0.40;;;12.80;53.20;;;;;;20704;6837;117459;-75
2023/01/15 00:34:55;;;;;;;0.33;0.30;;;12.80;53.40;;;;;;20738;6837;119183;-75
2023/01/15 00:37:20;;;;;;;0.30;0.30;;;12.60;53.90;;;;;;20529;6837;279884;-75
2023/01/15 00:39:46;;;;;;;1.27;0.30;;;12.70;53.40;;;;;;20732;6837;117199;-75
2023/01/15 00:42:11;;;;;;;0.30;0.30;;;12.70;53.60;;;;;;20783;6837;118483;-74
2023/01/15 00:44:37;;;;;;;0.40;0.40;;;12.60;53.90;;;;;;20529;6837;334895;-75
2023/01/15 00:47:03;;;;;;;0.30;0.20;;;12.70;53.40;;;;;;20750;6837;117511;-75
2023/01/15 00:49:28;;;;;;;0.45;0.30;;;12.70;53.50;;;;;;20757;6837;117142;-74
2023/01/15 00:51:54;;;;;;;0.73;0.30;;;12.60;53.90;;;;;;20527;6837;327795;-74
2023/01/15 00:54:19;;;;;;;0.80;0.25;;;12.70;53.40;;;;;;20718;6837;118366;-75
2023/01/15 00:56:45;;;;;;;0.20;0.20;;;12.80;53.50;;;;;;20766;6835;117205;-75
2023/01/15 00:59:10;;;;;;;0.50;0.30;;;12.60;53.80;;;;;;20757;6837;118264;-77
2023/01/15 01:01:36;;;;;;;0.67;0.30;;;12.50;54.10;;;;;;20528;6837;289805;-77
2023/01/15 01:04:02;;;;;;;0.30;0.30;;;12.70;54.00;;;;;;20736;6837;117842;-75
2023/01/15 01:06:27;;;;;;;1.05;0.40;;;12.70;54.00;;;;;;20722;6837;118051;-75
2023/01/15 01:08:53;;;;;;;0.50;0.32;;;12.60;54.40;;;;;;20737;6837;117254;-75
2023/01/15 01:11:18;;;;;;;0.40;0.40;;;12.40;54.80;;;;;;20529;6837;305968;-75
2023/01/15 01:13:47;;;;;;;0.67;0.30;;;12.60;56.00;;;;;;20534;6837;275921;-75
2023/01/15 01:16:21;;;;;;;0.30;0.30;;;12.80;56.00;;;;;;20534;6837;306412;-75
2023/01/15 01:18:48;;;;;;;0.67;0.30;;;13.00;55.60;;;;;;20737;6837;117311;-75
2023/01/15 01:21:14;;;;;;;0.67;0.20;;;12.90;55.50;;;;;;20737;6837;117411;-75
2023/01/15 01:23:39;;;;;;;0.23;0.23;;;12.60;55.90;;;;;;20743;6837;118168;-75
2023/01/15 01:26:05;;;;;;;0.30;0.30;;;12.40;56.40;;;;;;20747;6837;117519;-77
2023/01/15 01:28:31;;;;;;;0.30;0.30;;;12.00;57.10;;;;;;20718;6837;118292;-75
2023/01/15 01:30:57;;;;;;;0.20;0.20;;;12.00;57.10;;;;;;20730;6837;117118;-74
2023/01/15 01:33:22;;;;;;;0.50;0.20;;;11.90;57.50;;;;;;20526;6837;308147;-75
2023/01/15 01:35:48;;;;;;;0.30;0.30;;;12.10;57.70;;;;;;20737;6837;118768;-74
2023/01/15 01:38:16;;;;;;;0.20;0.20;;;12.30;57.10;;;;;;20500;6837;335393;-75
2023/01/15 01:40:42;;;;;;;0.30;0.30;;;12.60;56.40;;;;;;20513;6837;306138;-78
2023/01/15 01:43:14;;;;;;;0.17;0.17;;;12.60;56.40;;;;;;20741;6837;120960;-74
2023/01/15 01:45:40;;;;;;;0.30;0.30;;;12.40;56.60;;;;;;20683;6837;117137;-78
2023/01/15 01:48:06;;;;;;;0.20;0.20;;;12.40;56.50;;;;;;20522;6837;276636;-75
2023/01/15 01:50:31;;;;;;;0.10;0.10;;;12.50;56.40;;;;;;20713;6837;119485;-77
2023/01/15 01:53:04;;;;;;;0.20;0.20;;;12.50;56.30;;;;;;20721;6837;119088;-76
2023/01/15 01:55:32;;;;;;;0.47;0.40;;;12.20;56.90;;;;;;20719;6837;123329;-80
2023/01/15 01:57:58;;;;;;;0.20;0.20;;;12.10;57.30;;;;;;20720;6837;120523;-75
2023/01/15 02:00:23;;;;;;;0.57;0.20;;;12.10;57.30;;;;;;20714;6837;118474;-76
2023/01/15 02:02:49;;;;;;;0.50;0.20;;;12.00;57.50;;;;;;20521;6837;306465;-76
2023/01/15 02:05:32;;;;;;;0.10;0.10;;;12.30;57.10;;;;;;20737;6837;117596;-76
2023/01/15 02:07:58;;;;;;;0.20;0.20;;;12.30;57.00;;;;;;20736;6835;117053;-76
2023/01/15 02:10:24;;;;;;;0.30;0.22;;;12.40;56.90;;;;;;20494;6836;276695;-76
2023/01/15 02:12:59;;;;;;;0.60;0.10;;;12.40;56.90;;;;;;20510;6837;305956;-76
2023/01/15 02:15:31;;;;;;;0.30;0.10;;;12.70;56.10;;;;;;20720;6837;117183;-76
2023/01/15 02:18:17;;;;;;;0.30;0.20;;;12.80;56.10;;;;;;20516;6837;298272;-76
2023/01/15 02:20:45;;;;;;;0.10;0.10;;;12.90;55.70;;;;;;20722;6837;117709;-76
2023/01/15 02:23:19;;;;;;;0.20;0.20;;;12.80;55.70;;;;;;19841;6837;335328;-75
2023/01/15 02:26:24;;;;;;;0.20;0.20;;;12.90;55.40;;;;;;20526;6837;278916;-75
2023/01/15 02:28:50;;;;;;;0.20;0.20;;;13.20;54.80;;;;;;20733;6837;118686;-76
2023/01/15 02:31:16;;;;;;;0.15;0.15;;;12.80;55.50;;;;;;20717;6837;118040;-75
2023/01/15 02:33:54;;;;;;;0.20;0.20;;;12.80;55.50;;;;;;20473;6837;305145;-75
2023/01/15 02:36:20;;;;;;;0.20;0.20;;;12.90;55.40;;;;;;20408;6837;305526;-78
2023/01/15 02:38:46;;;;;;;0.10;0.10;;;13.20;54.80;;;;;;20723;6837;119403;-76
2023/01/15 02:41:15;;;;;;;0.20;0.20;;;13.10;54.80;;;;;;20508;6837;335513;-75
2023/01/15 02:43:38;;;;;;;0.85;0.20;;;13.20;54.60;;;;;;20728;6837;117589;-75
2023/01/15 02:46:04;;;;;;;0.30;0.10;;;13.10;54.90;;;;;;20741;6837;117323;-75
2023/01/15 02:48:29;;;;;;;0.08;0.08;;;12.90;55.30;;;;;;20708;6837;117627;-76
2023/01/15 02:50:55;;;;;;;0.10;0.10;;;12.70;55.80;;;;;;20727;6837;118408;-75
2023/01/15 02:53:22;;;;;;;0.40;0.20;;;12.60;56.30;;;;;;20513;6837;281050;-75
2023/01/15 02:55:47;;;;;;;0.20;0.20;;;12.80;56.30;;;;;;20726;6837;118263;-75
2023/01/15 02:58:13;;;;;;;0.10;0.10;;;12.70;56.30;;;;;;20723;6837;118870;-76
2023/01/15 03:00:39;;;;;;;0.10;0.10;;;12.60;56.20;;;;;;20561;6837;117276;-76
2023/01/15 03:03:18;;;;;;;0.10;0.10;;;12.50;56.50;;;;;;20509;6837;296350;-75
2023/01/15 03:05:44;;;;;;;0.10;0.10;;;12.80;56.90;;;;;;20731;6837;117798;-76
2023/01/15 03:08:20;;;;;;;;;;;;;;;;;;;;;
2023/01/15 03:10:49;;;;;;;0.20;0.20;;;12.60;56.50;;;;;;20656;6837;120057;-76
2023/01/15 03:13:35;;;;;;;0.10;0.10;;;12.50;56.70;;;;;;20092;6837;306442;-76
2023/01/15 03:16:33;;;;;;;0.65;0.20;;;12.70;56.60;;;;;;19805;6837;315418;-75
2023/01/15 03:19:05;;;;;;;0.93;0.20;;;13.10;55.60;;;;;;20714;6835;119061;-75
2023/01/15 03:21:48;;;;;;;0.17;0.10;;;13.00;55.70;;;;;;20481;6836;277651;-76
2023/01/15 03:24:13;;;;;;;0.10;0.10;;;13.10;55.80;;;;;;20727;6837;118757;-76
2023/01/15 03:26:39;;;;;;;0.30;0.28;;;13.10;56.00;;;;;;20507;6837;306556;-75
2023/01/15 03:29:05;;;;;;;0.30;0.10;;;13.10;56.00;;;;;;20511;6837;309318;-75
2023/01/15 03:31:31;;;;;;;0.20;0.20;;;13.30;56.40;;;;;;20709;6837;117205;-75
2023/01/15 03:33:57;;;;;;;0.20;0.20;;;13.30;55.80;;;;;;20380;6837;311316;-75
2023/01/15 03:36:23;;;;;;;0.10;0.10;;;13.50;55.20;;;;;;20479;6837;307932;-75
2023/01/15 03:38:49;;;;;;;0.40;0.20;;;13.50;55.20;;;;;;20679;6837;117784;-76
2023/01/15 03:41:15;;;;;;;0.20;0.20;;;13.40;55.20;;;;;;20678;6837;118169;-76
2023/01/15 03:43:46;;;;;;;0.85;0.20;;;13.10;55.60;;;;;;20731;6837;118212;-76
2023/01/15 03:46:12;;;;;;;0.40;0.20;;;12.90;56.10;;;;;;20536;6837;280758;-75
2023/01/15 03:48:50;;;;;;;0.87;0.20;;;12.90;56.50;;;;;;19887;6837;120813;-75
2023/01/15 03:51:19;;;;;;;0.83;0.17;;;13.00;56.50;;;;;;20702;6837;119917;-75
2023/01/15 03:53:44;;;;;;;0.20;0.10;;;12.80;56.90;;;;;;20499;6837;306487;-75
2023/01/15 03:56:14;;;;;;;0.10;0.10;;;12.80;57.10;;;;;;20705;6837;117247;-75
2023/01/15 03:58:40;;;;;;;0.50;0.20;;;13.00;57.90;;;;;;20487;6837;325543;-75
2023/01/15 04:01:06;;;;;;;0.23;0.10;;;12.90;57.80;;;;;;20703;6837;117556;-75
2023/01/15 04:03:31;;;;;;;0.20;0.20;;;12.90;57.70;;;;;;20720;6837;117590;-78
2023/01/15 04:05:57;;;;;;;1.27;0.10;;;12.70;58.00;;;;;;20718;6837;118182;-76
2023/01/15 04:08:24;;;;;;;0.30;0.20;;;12.60;59.10;;;;;;20503;6837;289672;-75
2023/01/15 04:10:56;;;;;;;0.20;0.20;;;12.50;59.00;;;;;;20709;6837;120979;-77
2023/01/15 04:13:22;;;;;;;1.13;0.23;;;12.50;58.70;;;;;;20727;6837;117641;-74
2023/01/15 04:15:47;;;;;;;0.10;0.10;;;12.30;58.90;;;;;;20732;6837;118317;-74
2023/01/15 04:18:13;;;;;;;0.20;0.20;;;12.20;59.30;;;;;;20731;6837;125422;-77
2023/01/15 04:20:39;;;;;;;0.20;0.20;;;12.10;59.60;;;;;;20515;6837;310862;-74
2023/01/15 04:23:05;;;;;;;0.22;0.22;;;12.60;59.50;;;;;;20529;6837;276263;-81
2023/01/15 04:25:30;;;;;;;0.50;0.10;;;12.60;59.50;;;;;;20519;6837;292965;-74
2023/01/15 04:27:56;;;;;;;0.28;0.13;;;12.90;58.80;;;;;;20520;6837;294437;-75
2023/01/15 04:30:22;;;;;;;0.20;0.20;;;13.10;58.00;;;;;;20696;6835;147127;-77
2023/01/15 04:32:47;;;;;;;0.10;0.10;;;13.00;58.00;;;;;;20511;6836;289438;-77
2023/01/15 04:48:49;;;;;;;0.17;0.10;;;12.10;60.00;;;;;;21292;6517;91302;-75
2023/01/15 04:51:14;;;;;;;0.10;0.10;;;11.90;60.30;;;;;;20560;6888;117462;-73
2023/01/15 04:53:40;;;;;;;0.80;0.10;;;11.80;60.40;;;;;;20379;6873;309549;-75
2023/01/15 04:56:06;;;;;;;0.28;0.10;;;12.10;60.90;;;;;;20291;6887;280037;-75
2023/01/15 04:58:32;;;;;;;0.20;0.20;;;12.50;59.30;;;;;;20377;6872;290333;-76
2023/01/15 05:00:59;;;;;;;0.10;0.10;;;12.80;58.20;;;;;;20585;6873;122908;-74
2023/01/15 05:03:23;;;;;;;0.50;0.10;;;12.80;58.00;;;;;;20391;6870;318251;-76
2023/01/15 05:05:49;;;;;;;0.10;0.10;;;13.00;57.70;;;;;;20429;6867;279400;-77
2023/01/15 05:08:14;;;;;;;0.10;0.10;;;13.20;57.00;;;;;;20356;6882;280296;-76
2023/01/15 05:10:40;;;;;;;0.10;0.10;;;13.30;56.90;;;;;;20625;6870;118591;-76
2023/01/15 05:13:06;;;;;;;0.10;0.10;;;13.30;56.30;;;;;;20603;6870;117845;-76
2023/01/15 05:15:31;;;;;;;0.20;0.10;;;13.00;56.70;;;;;;20422;6870;308738;-76
2023/01/15 05:17:57;;;;;;;0.10;0.10;;;13.10;56.80;;;;;;20396;6870;338315;-76
2023/01/15 05:20:22;;;;;;;0.30;0.10;;;13.30;56.20;;;;;;20340;6883;280057;-77
2023/01/15 05:22:48;;;;;;;0.15;0.15;;;13.50;55.50;;;;;;20520;6884;118948;-76
2023/01/15 05:25:13;;;;;;;0.73;0.10;;;13.40;55.60;;;;;;20477;6899;120646;-75
2023/01/15 05:27:41;;;;;;;0.90;0.20;;;13.20;56.20;;;;;;20284;6899;324238;-76
2023/01/15 05:30:06;;;;;;;0.10;0.10;;;13.20;56.20;;;;;;20497;6894;125408;-76
2023/01/15 05:32:31;;;;;;;0.10;0.10;;;13.10;56.30;;;;;;20338;6886;279350;-76
2023/01/15 05:34:57;;;;;;;0.10;0.10;;;13.20;56.40;;;;;;20354;6873;284483;-76
2023/01/15 05:37:23;;;;;;;0.20;0.20;;;13.40;56.10;;;;;;20370;6873;339901;-76
2023/01/15 05:39:48;;;;;;;0.40;0.20;;;13.60;55.80;;;;;;20421;6873;278369;-74
2023/01/15 05:42:14;;;;;;;0.10;0.10;;;13.70;55.30;;;;;;20621;6873;121551;-78
2023/01/15 05:44:39;;;;;;;0.30;0.30;;;13.60;55.60;;;;;;20410;6873;308350;-76
2023/01/15 05:47:06;;;;;;;0.20;0.20;;;13.50;55.80;;;;;;20415;6873;282870;-76
2023/01/15 05:49:31;;;;;;;0.20;0.20;;;13.80;55.60;;;;;;20364;6886;315087;-79
2023/01/15 05:51:57;;;;;;;0.20;0.20;;;13.80;55.60;;;;;;20620;6870;117544;-76
2023/01/15 05:54:25;;;;;;;0.57;0.10;;;13.60;55.80;;;;;;20598;6870;119355;-75
2023/01/15 05:56:51;;;;;;;0.15;0.10;;;13.30;56.40;;;;;;20402;6870;310840;-76
2023/01/15 05:59:17;;;;;;;0.28;0.10;;;13.40;56.70;;;;;;20373;6882;309307;-76
2023/01/15 06:01:44;;;;;;;0.10;0.10;;;13.40;56.70;;;;;;20553;6883;122766;-79
2023/01/15 06:04:09;;;;;;;0.87;0.17;;;13.30;56.70;;;;;;20442;6883;124528;-76
2023/01/15 06:06:35;;;;;;;0.60;0.10;;;13.00;57.20;;;;;;20346;6883;279664;-75
2023/01/15 06:09:01;;;;;;;0.10;0.10;;;13.10;57.70;;;;;;20543;6885;120612;-73
2023/01/15 06:11:27;;;;;;;0.93;0.20;;;12.80;58.00;;;;;;20561;6885;117583;-72
2023/01/15 06:13:53;;;;;;;0.10;0.10;;;12.70;57.90;;;;;;20574;6885;119627;-75
2023/01/15 06:16:18;;;;;;;1.30;0.30;;;12.50;58.50;;;;;;20340;6885;280096;-73
2023/01/15 06:18:44;;;;;;;1.25;0.95;;;12.60;59.70;;;;;;20572;6885;117581;-73
2023/01/15 06:21:09;;;;;;;0.50;0.50;;;12.60;58.90;;;;;;20358;6885;322760;-75
2023/01/15 06:23:35;;;;;;;0.10;0.10;;;12.50;57.60;;;;;;20569;6885;118955;-71
2023/01/15 06:26:03;;;;;;;0.10;0.10;;;11.70;57.50;;;;;;20579;6885;117410;-74
2023/01/15 06:28:28;;;;;;;0.10;0.10;;;11.70;57.50;;;;;;20334;6883;279649;-75
2023/01/15 06:30:54;;;;;;;0.10;0.10;;;11.60;58.90;;;;;;20574;6883;117832;-74
2023/01/15 06:33:19;;;;;;;0.10;0.10;;;11.30;58.10;;;;;;20207;6883;312679;-74
2023/01/15 06:35:45;;;;;;;0.07;0.07;;;11.20;58.70;;;;;;20556;6883;119280;-74
2023/01/15 06:38:10;;;;;;;0.10;0.10;;;10.90;58.80;;;;;;20375;6883;338930;-77
2023/01/15 06:40:37;;;;;;;0.20;0.20;;;10.60;59.10;;;;;;20560;6879;119431;-76
2023/01/15 06:48:35;;;;;;;0.40;0.40;;;9.90;61.60;;;;;;20557;6879;119579;-75
2023/01/15 06:51:01;;;;;;;2.70;2.47;;;9.50;63.10;;;;;;20591;6879;117250;-74
2023/01/15 06:53:27;;;;;;;2.13;1.30;;;9.50;63.10;;;;;;20570;6882;118606;-73
2023/01/15 06:55:53;;;;;;;0.50;0.40;;;9.60;64.20;;;;;;20375;6882;308657;-73
2023/01/15 06:58:21;;;;;;;0.13;0.13;;;9.60;64.20;;;;;;20559;6882;129009;-74
2023/01/15 07:00:52;;;;;;;0.20;0.20;;;9.70;63.70;;;;;;20572;6882;118111;-74
2023/01/15 07:03:14;;;;;;;1.13;0.17;;;9.30;64.10;;;;;;20560;6879;117289;-74
2023/01/15 07:05:40;;;;;;;0.10;0.10;;;9.30;64.10;;;;;;20303;6894;309909;-75
2023/01/15 07:08:07;;;;;;;0.30;0.30;;;9.90;63.90;;;;;;20349;6894;282297;-75
2023/01/15 07:10:40;;;;;;;0.30;0.30;;;9.80;63.80;;;;;;20295;6894;313394;-76
2023/01/15 07:13:06;;;;;;;0.23;0.20;;;10.00;61.70;;;;;;20607;6878;117195;-76
2023/01/15 07:15:33;;;;;;;0.43;0.33;;;10.00;61.70;;;;;;20546;6894;118171;-75
2023/01/15 07:17:58;;;;;;;0.10;0.10;;;9.80;63.10;;;;;;20395;6878;301711;-75
2023/01/15 07:20:23;;;;;;;0.10;0.10;;;9.80;63.10;;;;;;20533;6893;118207;-74
2023/01/15 07:22:50;;;;;;;0.17;0.17;;;9.50;63.50;;;;;;20571;6877;118035;-74
2023/01/15 07:25:15;;;;;;;0.40;0.40;;;9.50;63.50;;;;;;20615;6877;117184;-75
2023/01/15 07:27:42;;;;;;;3.20;2.95;;;9.30;64.00;;;;;;20401;6877;278433;-75
2023/01/15 07:30:08;;;;;;;16.80;14.17;;;9.40;64.10;;;;;;20610;6877;118799;-73
2023/01/15 07:32:33;;;;;;;97.40;47.83;;;9.40;63.60;;;;;;20567;6877;118691;-74
2023/01/15 07:35:00;;;;;;;3.70;3.40;;;9.20;63.90;;;;;;20408;6877;319028;-75
2023/01/15 07:37:25;;;;;;;1.23;1.13;;;9.30;63.40;;;;;;20410;6877;308461;-73
2023/01/15 07:39:51;;;;;;;0.30;0.30;;;9.50;61.80;;;;;;20615;6877;117682;-72
2023/01/15 07:50:34;;;;;;;0.30;0.30;;;10.00;60.10;;;;;;20381;6877;279606;-75
2023/01/15 07:53:00;;;;;;;1.10;1.00;;;10.20;60.00;;;;;;20387;6877;295019;-75
2023/01/15 07:55:25;;;;;;;0.75;0.75;;;10.30;59.80;;;;;;20399;6877;309569;-75
2023/01/15 07:57:52;;;;;;;26.40;23.90;;;10.40;59.40;;;;;;20607;6877;118325;-73
2023/01/15 08:00:16;;;;;;;7.43;7.03;;;10.20;59.50;;;;;;20376;6877;339487;-74
2023/01/15 08:02:43;;;;;;;0.80;0.80;;;10.10;59.30;;;;;;20574;6877;117549;-78
2023/01/15 08:05:08;;;;;;;0.30;0.30;;;9.80;60.30;;;;;;20611;6877;119314;-73
2023/01/15 08:07:40;;;;;;;0.33;0.33;;;9.50;61.20;;;;;;20404;6877;320259;-73
2023/01/15 08:10:09;;;;;;;0.20;0.20;;;9.50;61.20;;;;;;20614;6877;117063;-73
2023/01/15 08:15:21;;;;;;;0.50;0.50;;;9.50;61.10;;;;;;20618;6877;117781;-71
2023/01/15 08:17:46;;;;;;;0.30;0.30;;;9.40;61.10;;;;;;20591;6877;118667;-71
2023/01/15 08:20:15;;;;;;;2.30;2.20;;;9.20;61.70;;;;;;20397;6877;279388;-71
2023/01/15 08:22:43;;;;;;;2.20;2.10;;;9.60;61.40;;;;;;20375;6875;284437;-72
2023/01/15 08:25:07;;;;;;;11.60;10.80;;;9.60;61.40;;;;;;20608;6876;117104;-72
2023/01/15 08:27:33;;;;;;;2.23;2.13;;;9.60;61.30;;;;;;20395;6877;284007;-74
2023/01/15 08:29:59;;;;;;;5.47;5.17;;;9.90;59.70;;;;;;20402;6877;282146;-74
2023/01/15 08:32:25;;;;;;;0.83;0.83;;;9.80;59.60;;;;;;20369;6877;314200;-73
2023/01/15 08:34:50;;;;;;;3.07;2.87;;;10.10;57.60;;;;;;20398;6877;281522;-73
2023/01/15 08:37:16;;;;;;;9.60;9.00;;;10.20;57.90;;;;;;20415;6877;308715;-74
2023/01/15 08:39:41;;;;;;;13.05;12.25;;;10.40;57.70;;;;;;20398;6877;341453;-73
2023/01/15 08:42:09;;;;;;;6.60;6.20;;;10.40;56.90;;;;;;20386;6877;338338;-76
2023/01/15 08:44:34;;;;;;;3.00;2.73;;;10.50;56.30;;;;;;20581;6877;119380;-76
2023/01/15 08:47:00;;;;;;;1.30;1.30;;;10.20;56.50;;;;;;20407;6877;329161;-72
2023/01/15 08:49:26;;;;;;;0.33;0.33;;;10.10;56.70;;;;;;20609;6877;118361;-72
2023/01/15 08:51:51;;;;;;;1.05;0.55;;;9.90;58.10;;;;;;20603;6877;118991;-72
2023/01/15 08:54:18;;;;;;;0.40;0.40;;;9.60;59.40;;;;;;20386;6877;314600;-71
2023/01/15 08:56:44;;;;;;;0.30;0.30;;;9.60;59.40;;;;;;20608;6877;119491;-77
2023/01/15 08:59:10;;;;;;;0.50;0.50;;;9.60;59.60;;;;;;20612;6877;117160;-72
2023/01/15 09:01:35;;;;;;;0.20;0.20;;;9.40;60.30;;;;;;20405;6877;283036;-72
2023/01/15 09:04:01;;;;;;;1.30;0.23;;;9.50;60.50;;;;;;20617;6877;121364;-72
2023/01/15 09:06:26;;;;;;;0.10;0.10;;;9.40;60.20;;;;;;20391;6877;279706;-73
2023/01/15 09:08:52;;;;;;;0.50;0.40;;;9.60;60.20;;;;;;20620;6877;119077;-72
2023/01/15 09:11:18;;;;;;;1.30;0.20;;;9.50;60.00;;;;;;20381;6877;342616;-73
2023/01/15 09:13:46;;;;;;;1.30;0.20;;;9.80;59.70;;;;;;20404;6877;282893;-74
2023/01/15 09:16:10;;;;;;;0.30;0.30;;;9.80;59.80;;;;;;20605;6877;121376;-75
2023/01/15 09:18:35;;;;;;;0.28;0.28;;;9.80;59.80;;;;;;20380;6877;308643;-76
2023/01/15 09:21:01;;;;;;;0.40;0.40;;;9.80;59.80;;;;;;20596;6877;119090;-75
2023/01/15 09:23:30;;;;;;;0.35;0.35;;;9.70;59.70;;;;;;20625;6877;118174;-77
2023/01/15 09:26:00;;;;;;;0.40;0.20;;;9.50;60.20;;;;;;20392;6877;307718;-75
2023/01/15 09:28:26;;;;;;;0.63;0.40;;;9.80;59.50;;;;;;20373;6877;307767;-76
2023/01/15 09:30:52;;;;;;;0.30;0.30;;;9.80;59.50;;;;;;20594;6877;118681;-75
2023/01/15 09:33:17;;;;;;;0.77;0.67;;;9.70;59.50;;;;;;20618;6875;118185;-76
2023/01/15 09:35:43;;;;;;;0.33;0.30;;;9.50;60.20;;;;;;20629;6876;117517;-76
2023/01/15 09:38:09;;;;;;;0.83;0.23;;;9.20;60.80;;;;;;20619;6877;117562;-78
2023/01/15 09:40:48;;;;;;;0.50;0.30;;;9.10;61.40;;;;;;20334;6877;340811;-75
2023/01/15 09:43:29;;;;;;;0.30;0.30;;;9.20;61.20;;;;;;20614;6877;118311;-75
2023/01/15 09:46:08;;;;;;;0.27;0.27;;;9.20;60.90;;;;;;19863;6877;121048;-75
2023/01/15 09:49:00;;;;;;;0.30;0.30;;;9.00;61.20;;;;;;20368;6877;309179;-74
2023/01/15 09:51:26;;;;;;;0.20;0.20;;;9.20;60.50;;;;;;20380;6877;308992;-74
2023/01/15 09:53:54;;;;;;;0.30;0.22;;;9.50;59.70;;;;;;20355;6877;341962;-77
2023/01/15 09:56:21;;;;;;;0.97;0.97;;;9.70;59.30;;;;;;20598;6877;117736;-77
2023/01/15 09:58:46;;;;;;;0.52;0.40;;;9.60;59.40;;;;;;20399;6877;309238;-77
2023/01/15 10:01:12;;;;;;;0.40;0.40;;;9.70;59.60;;;;;;20611;6877;119299;-75
2023/01/15 10:03:41;;;;;;;0.40;0.40;;;9.50;59.70;;;;;;20389;6877;311660;-75
2023/01/15 10:06:14;;;;;;;0.20;0.20;;;9.70;58.30;;;;;;20390;6877;309715;-77
2023/01/15 10:08:43;;;;;;;0.30;0.30;;;9.70;57.90;;;;;;20601;6877;118630;-76
2023/01/15 10:11:13;;;;;;;0.30;0.30;;;9.50;57.90;;;;;;20383;6877;314330;-76
2023/01/15 10:13:48;;;;;;;0.30;0.30;;;9.50;57.80;;;;;;20619;6877;118811;-76
2023/01/15 10:16:20;;;;;;;0.30;0.30;;;9.30;58.00;;;;;;20583;6877;117009;-76
2023/01/15 10:18:45;;;;;;;0.40;0.40;;;9.10;58.80;;;;;;20394;6877;308167;-76
2023/01/15 10:21:41;;;;;;;0.30;0.30;;;9.10;58.40;;;;;;20614;6877;118121;-77
2023/01/15 10:24:16;;;;;;;0.37;0.37;;;9.00;58.50;;;;;;20618;6877;117190;-77
2023/01/15 10:26:45;;;;;;;0.20;0.20;;;8.80;59.20;;;;;;20608;6877;117497;-76
2023/01/15 10:29:17;;;;;;;0.30;0.30;;;8.60;59.90;;;;;;20594;6877;117524;-76
2023/01/15 10:31:52;;;;;;;0.20;0.20;;;8.50;60.40;;;;;;20366;6877;279073;-77
2023/01/15 10:34:18;;;;;;;0.30;0.30;;;8.70;59.60;;;;;;20381;6877;298962;-76
2023/01/15 10:36:46;;;;;;;0.20;0.20;;;9.00;58.30;;;;;;20595;6877;118632;-74
2023/01/15 10:39:22;;;;;;;0.30;0.30;;;9.00;58.40;;;;;;20384;6877;304146;-76
2023/01/15 10:41:58;;;;;;;0.43;0.43;;;9.10;58.10;;;;;;20593;6877;117136;-77
2023/01/15 10:44:27;;;;;;;0.40;0.40;;;9.00;58.10;;;;;;20560;6875;121329;-76
2023/01/15 10:46:54;;;;;;;0.43;0.43;;;8.70;58.80;;;;;;20588;6876;117143;-75
2023/01/15 10:49:21;;;;;;;1.23;1.23;;;8.50;59.50;;;;;;20594;6877;118502;-77
2023/01/15 10:51:50;;;;;;;0.93;0.70;;;8.40;59.90;;;;;;20600;6877;116860;-77
2023/01/15 10:54:43;;;;;;;0.40;0.40;;;8.10;60.70;;;;;;20450;6877;118923;-77
2023/01/15 10:57:12;;;;;;;0.53;0.53;;;8.10;60.70;;;;;;20599;6877;117514;-78
2023/01/15 10:59:41;;;;;;;1.00;1.00;;;8.00;61.10;;;;;;20603;6877;117562;-72
2023/01/15 11:02:06;;;;;;;0.50;0.50;;;7.90;61.40;;;;;;20380;6877;338241;-74
2023/01/15 11:04:33;;;;;;;0.60;0.60;;;8.20;60.60;;;;;;20565;6877;118383;-74
2023/01/15 11:07:00;;;;;;;0.40;0.40;;;8.30;60.50;;;;;;20624;6877;118480;-74
2023/01/15 11:09:30;;;;;;;0.60;0.60;;;8.20;60.70;;;;;;20400;6877;338470;-75
2023/01/15 11:20:19;;;;;;;0.13;0.13;;;8.80;57.90;;;;;;20593;6877;117862;-75
2023/01/15 11:22:45;;;;;;;0.30;0.30;;;8.80;57.80;;;;;;20177;6877;310467;-75
2023/01/15 11:25:11;;;;;;;0.20;0.20;;;8.80;57.50;;;;;;20392;6877;309002;-75
2023/01/15 11:27:36;;;;;;;0.30;0.30;;;9.00;56.80;;;;;;20377;6877;315498;-76
2023/01/15 11:30:02;;;;;;;0.10;0.10;;;9.20;56.60;;;;;;20401;6877;314670;-74
2023/01/15 11:32:33;;;;;;;0.20;0.20;;;9.30;56.10;;;;;;20568;6877;121077;-73
2023/01/15 11:34:59;;;;;;;0.20;0.20;;;9.10;56.40;;;;;;20366;6877;338349;-73
2023/01/15 11:37:25;;;;;;;0.20;0.20;;;9.00;56.20;;;;;;20601;6877;117670;-76
2023/01/15 11:39:50;;;;;;;0.30;0.30;;;8.90;56.70;;;;;;20601;6877;118791;-73
2023/01/15 11:50:53;;;;;;;0.30;0.30;;;8.40;57.90;;;;;;20351;6877;309831;-73
2023/01/15 11:53:19;;;;;;;0.50;0.50;;;8.50;57.60;;;;;;20376;6877;281030;-72
2023/01/15 11:55:48;;;;;;;0.70;0.70;;;8.80;57.00;;;;;;20404;6877;278090;-72
2023/01/15 11:58:15;;;;;;;0.98;0.88;;;9.10;54.60;;;;;;20397;6876;279014;-75
2023/01/15 12:00:41;;;;;;;0.40;0.40;;;9.10;54.60;;;;;;20420;6877;118365;-73
2023/01/15 12:03:17;;;;;;;0.30;0.30;;;8.70;55.70;;;;;;20375;6877;280764;-71
2023/01/15 12:05:45;;;;;;;1.00;1.00;;;8.60;55.60;;;;;;20517;6877;117507;-71
2023/01/15 12:08:11;;;;;;;1.02;1.02;;;8.30;56.90;;;;;;20391;6877;308725;-72
2023/01/15 12:13:42;;;;;;;1.42;1.42;;;8.10;56.60;;;;;;19340;7231;322563;-72
2023/01/15 12:16:18;;;;;;;0.83;0.83;;;8.00;56.80;;;;;;20245;6864;119261;-73
2023/01/15 12:18:56;;;;;;;0.30;0.30;;;8.00;56.80;;;;;;20595;6873;117452;-73
2023/01/15 12:21:28;;;;;;;1.80;0.40;;;7.70;57.60;;;;;;20596;6873;117429;-74
2023/01/15 12:24:23;;;;;;;0.50;0.30;;;7.50;58.40;;;;;;20555;6879;118353;-76
2023/01/15 12:27:02;;;;;;;0.30;0.30;;;7.30;58.90;;;;;;20607;6879;117670;-74
2023/01/15 12:29:34;;;;;;;0.20;0.20;;;7.10;59.50;;;;;;20613;6877;117665;-77
2023/01/15 12:32:00;;;;;;;0.30;0.30;;;7.00;59.90;;;;;;20365;6879;284019;-76
2023/01/15 12:34:42;;;;;;;0.43;0.43;;;7.20;59.20;;;;;;20568;6877;118451;-76
2023/01/15 12:37:12;;;;;;;1.10;1.10;;;7.30;59.00;;;;;;20394;6879;313931;-75
2023/01/15 12:39:44;;;;;;;2.53;2.43;;;7.70;56.00;;;;;;20379;6877;303353;-75
2023/01/15 12:45:00;;;;;;;1.10;1.10;;;8.00;55.50;;;;;;20408;6877;308806;-75
2023/01/15 12:50:51;;;;;;;0.57;0.57;;;8.00;55.50;;;;;;20562;6877;117365;-75
2023/01/15 12:53:24;;;;;;;1.53;1.53;;;7.90;55.40;;;;;;20505;6879;123897;-75
2023/01/15 12:55:49;;;;;;;0.90;0.90;;;7.60;56.30;;;;;;20539;6878;119441;-75
2023/01/15 12:58:19;;;;;;;1.17;1.17;;;7.40;56.80;;;;;;19851;6900;313762;-76
2023/01/15 13:00:44;;;;;;;1.35;1.25;;;7.40;56.80;;;;;;20189;6924;325475;-75
2023/01/15 13:03:20;;;;;;;1.10;1.10;;;7.70;55.70;;;;;;20492;6887;118147;-74
2023/01/15 13:05:46;;;;;;;0.50;0.50;;;7.70;55.80;;;;;;20097;6897;119722;-77
2023/01/15 13:08:27;;;;;;;1.73;1.63;;;7.40;56.60;;;;;;20308;6895;323257;-74
2023/01/15 13:10:53;;;;;;;1.20;0.80;;;7.50;56.30;;;;;;20344;6882;290323;-74
2023/01/15 13:13:23;;;;;;;0.40;0.40;;;7.80;55.70;;;;;;20587;6886;117250;-74
2023/01/15 13:15:56;;;;;;;0.80;0.80;;;7.70;55.90;;;;;;20573;6886;119147;-77
2023/01/15 13:18:28;;;;;;;0.47;0.47;;;7.40;56.60;;;;;;20285;6870;119260;-76
2023/01/15 13:20:54;;;;;;;0.40;0.40;;;7.20;57.60;;;;;;20310;6900;290867;-76
2023/01/15 13:23:42;;;;;;;0.40;0.40;;;7.30;57.00;;;;;;20328;6900;309677;-80
2023/01/15 13:26:28;;;;;;;0.80;0.80;;;7.50;56.20;;;;;;20594;6885;117746;-76
2023/01/15 13:29:13;;;;;;;0.50;0.50;;;7.60;56.20;;;;;;20013;6875;117521;-77
2023/01/15 13:31:59;;;;;;;0.63;0.50;;;7.30;57.10;;;;;;20601;6875;117143;-75
2023/01/15 13:34:37;;;;;;;0.65;0.60;;;7.10;58.00;;;;;;20384;6875;308644;-74
2023/01/15 13:37:09;;;;;;;0.60;0.60;;;7.30;57.80;;;;;;20402;6875;309131;-77
2023/01/15 13:39:34;;;;;;;0.50;0.50;;;7.70;56.90;;;;;;20286;6890;309122;-77
2023/01/15 13:44:45;;;;;;;0.97;0.70;;;8.30;55.60;;;;;;20565;6884;121471;-76
2023/01/15 13:47:11;;;;;;;1.33;1.30;;;8.10;55.80;;;;;;20544;6884;116923;-75
2023/01/15 13:49:36;;;;;;;6.33;5.20;;;7.80;56.50;;;;;;20323;6884;342482;-73
2023/01/15 13:52:03;;;;;;;1.70;1.60;;;7.80;56.20;;;;;;20548;6884;117384;-74